Time;durP1;ratioP1;P1;durP2;ratioP2;P2;SDS_P1;SDS_P2;PMS_P1;PMS_P2;Temp;Humidity;BMP_temperature;BMP_pressure;BME280_temperature;BME280_humidity;BME280_pressure;Samples;Min_cycle;Max_cycle;Signal;HPM_P1;HPM_P2
2023/05/18 00:02:03;;;;;;;1.42;0.80;;;13.90;71.40;;;;;;5032802;28;20033;-74
2023/05/18 00:04:33;;;;;;;1.48;0.70;;;13.90;71.10;;;;;;5032728;28;20095;-75
2023/05/18 00:07:03;;;;;;;1.55;0.70;;;13.90;71.20;;;;;;5032202;28;20056;-75
2023/05/18 00:09:34;;;;;;;1.13;0.80;;;13.90;71.20;;;;;;5032646;28;20025;-74
2023/05/18 00:12:00;;;;;;;4.03;0.77;;;13.80;71.30;;;;;;5015001;28;20037;-74
2023/05/18 00:14:27;;;;;;;2.03;0.80;;;13.90;71.40;;;;;;5032559;28;20079;-74
2023/05/18 00:16:53;;;;;;;1.70;0.73;;;13.80;72.00;;;;;;5032631;28;20068;-75
2023/05/18 00:19:20;;;;;;;2.75;0.60;;;13.80;72.30;;;;;;5014572;28;20022;-74
2023/05/18 00:21:47;;;;;;;1.60;0.63;;;13.70;73.60;;;;;;5014980;28;20366;-74
2023/05/18 00:24:17;;;;;;;1.58;0.80;;;13.70;73.10;;;;;;5032669;28;20040;-74
2023/05/18 00:26:45;;;;;;;1.52;0.95;;;13.70;73.50;;;;;;5032651;28;20508;-74
2023/05/18 00:29:11;;;;;;;3.50;0.77;;;13.70;74.20;;;;;;5032796;28;20047;-76
2023/05/18 00:31:38;;;;;;;1.85;0.80;;;13.70;74.80;;;;;;5033346;28;20029;-74
2023/05/18 00:34:08;;;;;;;1.63;0.70;;;13.60;72.70;;;;;;5015470;28;20056;-74
2023/05/18 00:36:38;;;;;;;1.70;0.73;;;13.60;73.40;;;;;;5033291;28;20108;-74
2023/05/18 00:39:10;;;;;;;2.10;0.80;;;13.60;73.50;;;;;;5032962;28;20093;-74
2023/05/18 00:41:54;;;;;;;1.48;0.88;;;13.50;73.80;;;;;;5033203;28;20359;-74
2023/05/18 00:52:46;;;;;;;;;;;;;;;;;;;;;
2023/05/18 01:03:25;;;;;;;1.23;0.80;;;13.40;73.20;;;;;;4838414;29;20038;-74
2023/05/18 01:09:13;;;;;;;2.20;1.10;;;13.30;75.00;;;;;;4892363;29;20062;-74
2023/05/18 01:11:54;;;;;;;1.83;0.93;;;13.20;75.20;;;;;;4936909;28;20028;-74
2023/05/18 01:14:38;;;;;;;3.53;0.70;;;13.20;76.20;;;;;;5010938;28;20397;-74
2023/05/18 01:17:35;;;;;;;4.90;1.60;;;13.20;76.80;;;;;;5031864;28;20382;-74
2023/05/18 01:20:18;;;;;;;1.98;0.80;;;13.20;75.50;;;;;;5017824;28;20396;-74
2023/05/18 01:22:56;;;;;;;;;;;13.20;75.40;;;;;;5036195;28;20112;-74
2023/05/18 01:25:24;;;;;;;1.70;0.90;;;13.10;75.40;;;;;;5035602;28;19999;-74
2023/05/18 01:27:54;;;;;;;1.88;1.00;;;13.10;76.10;;;;;;5035884;28;20029;-74
2023/05/18 01:30:21;;;;;;;2.65;0.80;;;13.10;77.80;;;;;;5017765;28;20057;-74
2023/05/18 01:32:46;;;;;;;1.60;0.90;;;13.10;77.00;;;;;;5035249;28;20508;-74
2023/05/18 01:35:12;;;;;;;2.83;0.77;;;13.00;77.90;;;;;;5035125;28;20100;-74
2023/05/18 01:37:38;;;;;;;1.88;0.90;;;13.00;79.00;;;;;;5035593;28;20025;-74
2023/05/18 01:40:06;;;;;;;3.33;1.00;;;13.00;78.00;;;;;;5035462;28;20375;-74
2023/05/18 01:42:38;;;;;;;1.40;0.90;;;13.00;77.20;;;;;;5034708;28;20490;-74
2023/05/18 01:45:14;;;;;;;2.40;1.10;;;12.90;77.10;;;;;;5035271;28;20509;-74
2023/05/18 01:47:45;;;;;;;1.90;0.90;;;12.90;78.90;;;;;;5035154;28;20420;-75
2023/05/18 01:50:17;;;;;;;2.83;0.63;;;12.90;79.30;;;;;;5035231;28;20025;-75
2023/05/18 01:53:10;;;;;;;2.15;0.85;;;12.80;80.50;;;;;;5035492;28;20033;-76
2023/05/18 01:55:37;;;;;;;1.42;0.90;;;12.80;81.20;;;;;;5017797;28;20041;-76
2023/05/18 01:58:05;;;;;;;1.08;0.80;;;12.80;80.00;;;;;;5035331;28;20029;-76
2023/05/18 02:00:31;;;;;;;5.03;0.80;;;12.70;80.30;;;;;;5035259;28;20029;-77
2023/05/18 02:02:57;;;;;;;1.90;0.77;;;12.70;79.70;;;;;;5035160;28;20032;-77
2023/05/18 02:05:23;;;;;;;3.35;0.95;;;12.70;80.10;;;;;;5034885;28;20405;-77
2023/05/18 02:07:49;;;;;;;3.38;0.80;;;12.70;80.70;;;;;;5034718;28;20056;-77
2023/05/18 02:10:15;;;;;;;1.80;0.90;;;12.70;81.10;;;;;;5034736;28;20017;-77
2023/05/18 02:12:41;;;;;;;2.85;0.90;;;12.70;81.20;;;;;;5017558;28;20021;-74
2023/05/18 02:15:08;;;;;;;3.33;0.90;;;12.60;81.10;;;;;;5035714;28;20477;-75
2023/05/18 02:17:36;;;;;;;1.17;0.80;;;12.60;81.40;;;;;;5035069;28;20045;-74
2023/05/18 02:20:06;;;;;;;0.90;0.70;;;12.60;81.10;;;;;;5035185;28;20036;-74
2023/05/18 02:22:33;;;;;;;5.47;0.82;;;12.60;80.30;;;;;;5035422;28;20053;-74
2023/05/18 02:25:17;;;;;;;2.45;0.90;;;12.60;82.10;;;;;;5034914;28;20069;-74
2023/05/18 02:31:47;;;;;;;;;;;;;;;;;;;;;
2023/05/18 02:35:16;;;;;;;1.15;0.80;;;12.60;83.10;;;;;;5033814;28;20042;-74
2023/05/18 02:38:35;;;;;;;1.73;1.08;;;12.60;83.20;;;;;;4957533;28;20513;-74
2023/05/18 02:41:42;;;;;;;1.02;0.80;;;12.50;81.40;;;;;;4915767;29;20058;-74
2023/05/18 02:44:49;;;;;;;3.30;0.95;;;12.50;82.70;;;;;;4912297;28;20410;-74
2023/05/18 02:47:15;;;;;;;1.67;0.80;;;12.40;82.90;;;;;;4986273;28;20453;-75
2023/05/18 02:50:15;;;;;;;1.23;0.80;;;12.40;82.30;;;;;;5016407;28;20065;-75
2023/05/18 02:52:44;;;;;;;1.88;1.15;;;12.40;83.70;;;;;;5034280;28;20417;-74
2023/05/18 02:55:10;;;;;;;10.15;1.98;;;12.30;83.90;;;;;;5016591;28;20485;-74
2023/05/18 02:57:36;;;;;;;2.58;0.90;;;12.30;83.80;;;;;;5033929;28;20433;-74
2023/05/18 03:00:08;;;;;;;3.03;1.23;;;12.20;83.90;;;;;;5033851;28;20381;-74
2023/05/18 03:02:37;;;;;;;2.80;1.30;;;12.20;84.20;;;;;;5033874;28;20032;-74
2023/05/18 03:05:04;;;;;;;4.38;1.10;;;12.10;86.20;;;;;;5033575;28;20041;-74
2023/05/18 03:07:31;;;;;;;5.10;1.42;;;12.10;84.90;;;;;;5033704;28;20030;-74
2023/05/18 03:09:57;;;;;;;2.60;1.40;;;12.10;86.30;;;;;;5033443;28;20433;-74
2023/05/18 03:12:23;;;;;;;1.88;0.88;;;12.10;85.10;;;;;;5033372;28;20025;-74
2023/05/18 03:14:49;;;;;;;2.25;1.20;;;12.10;85.10;;;;;;5033004;28;20036;-74
2023/05/18 03:17:15;;;;;;;5.03;1.10;;;12.10;86.70;;;;;;5033311;28;20026;-74
2023/05/18 03:19:41;;;;;;;4.50;1.20;;;12.10;87.70;;;;;;5033279;28;20035;-73
2023/05/18 03:22:06;;;;;;;1.90;0.80;;;12.10;87.20;;;;;;5033112;28;20029;-74
2023/05/18 03:24:39;;;;;;;2.63;1.00;;;12.10;86.80;;;;;;5015139;28;20083;-75
2023/05/18 03:27:06;;;;;;;3.33;1.00;;;12.10;86.80;;;;;;5015500;28;20701;-74
2023/05/18 03:29:33;;;;;;;1.42;1.10;;;12.00;86.80;;;;;;5033315;28;20497;-74
2023/05/18 03:31:59;;;;;;;2.67;1.38;;;12.10;86.70;;;;;;5033238;28;20029;-75
2023/05/18 03:34:25;;;;;;;3.08;1.20;;;12.10;86.50;;;;;;5033216;28;20052;-75
2023/05/18 03:36:51;;;;;;;2.78;1.20;;;12.00;87.60;;;;;;5033030;28;20066;-74
2023/05/18 03:39:17;;;;;;;4.32;1.38;;;12.00;87.30;;;;;;5033223;28;20021;-75
2023/05/18 03:41:43;;;;;;;2.53;1.10;;;12.00;88.40;;;;;;5032301;28;20037;-74
2023/05/18 03:44:08;;;;;;;2.65;1.42;;;12.00;87.80;;;;;;5032704;28;20041;-73
2023/05/18 03:46:34;;;;;;;1.70;1.10;;;12.00;87.80;;;;;;5033140;28;20036;-73
2023/05/18 03:49:00;;;;;;;2.60;1.20;;;11.90;88.00;;;;;;5015322;28;20036;-75
2023/05/18 03:51:27;;;;;;;1.80;1.10;;;11.90;88.30;;;;;;5032944;28;20100;-74
2023/05/18 03:53:53;;;;;;;1.77;1.17;;;11.90;88.70;;;;;;5032908;28;20033;-75
2023/05/18 03:56:19;;;;;;;2.80;1.00;;;11.90;88.30;;;;;;5032682;28;20044;-75
2023/05/18 03:58:45;;;;;;;5.05;1.25;;;11.90;88.60;;;;;;5032856;28;20048;-76
2023/05/18 04:01:11;;;;;;;2.47;1.17;;;11.80;89.10;;;;;;5033605;28;20029;-75
2023/05/18 04:03:39;;;;;;;1.52;1.00;;;11.80;87.90;;;;;;5033550;28;20104;-75
2023/05/18 04:06:05;;;;;;;1.98;1.00;;;11.80;89.10;;;;;;5015176;28;20124;-75
2023/05/18 04:08:33;;;;;;;5.68;1.27;;;11.80;89.10;;;;;;5032909;28;20087;-74
2023/05/18 04:11:37;;;;;;;2.30;1.60;;;11.80;89.20;;;;;;5033340;28;20354;-74
2023/05/18 04:14:26;;;;;;;57.47;37.42;;;11.80;88.60;;;;;;4933668;29;20043;-74
2023/05/18 04:17:23;;;;;;;41.65;25.38;;;11.80;89.50;;;;;;4933694;29;20114;-73
2023/05/18 04:34:12;;;;;;;6.65;5.00;;;12.00;90.40;;;;;;4861218;29;20427;-74
2023/05/18 04:36:54;;;;;;;5.15;2.65;;;12.00;90.60;;;;;;4933217;29;20034;-74
2023/05/18 04:39:24;;;;;;;3.67;1.83;;;12.00;90.70;;;;;;4933471;29;20039;-74
2023/05/18 04:41:57;;;;;;;2.67;1.50;;;12.00;90.60;;;;;;4933158;29;20152;-75
2023/05/18 04:44:30;;;;;;;4.47;1.33;;;12.10;90.30;;;;;;4978301;28;20081;-74
2023/05/18 04:46:56;;;;;;;6.28;1.58;;;12.10;90.40;;;;;;5032456;28;20061;-74
2023/05/18 04:49:22;;;;;;;3.00;1.95;;;12.20;91.10;;;;;;5032407;28;20045;-74
2023/05/18 04:51:49;;;;;;;2.42;1.70;;;12.20;91.00;;;;;;5014644;28;20034;-75
2023/05/18 04:54:15;;;;;;;4.10;1.40;;;12.20;90.60;;;;;;5035403;28;20025;-74
2023/05/18 04:56:41;;;;;;;2.70;1.50;;;12.30;90.70;;;;;;5036026;28;20036;-75
2023/05/18 04:59:10;;;;;;;4.18;1.58;;;12.30;90.50;;;;;;5036124;28;20381;-74
2023/05/18 05:01:36;;;;;;;2.40;1.10;;;12.30;90.90;;;;;;5036047;28;20022;-74
2023/05/18 05:04:02;;;;;;;2.28;1.00;;;12.40;90.60;;;;;;5035770;28;20071;-74
2023/05/18 05:06:28;;;;;;;1.55;1.00;;;12.40;90.30;;;;;;5035814;28;20544;-75
2023/05/18 05:08:54;;;;;;;3.05;1.10;;;12.50;90.40;;;;;;5035663;28;20029;-74
2023/05/18 05:11:20;;;;;;;1.27;1.00;;;12.50;90.10;;;;;;5018180;28;20029;-75
2023/05/18 05:13:46;;;;;;;4.22;1.00;;;12.60;90.40;;;;;;5036409;28;20022;-74
2023/05/18 05:16:11;;;;;;;2.45;1.15;;;12.60;90.50;;;;;;5035638;28;20041;-75
2023/05/18 05:18:37;;;;;;;2.08;1.05;;;12.60;88.90;;;;;;5035330;28;20030;-75
2023/05/18 05:21:03;;;;;;;1.90;1.10;;;12.70;90.30;;;;;;5036000;28;20030;-77
2023/05/18 05:23:29;;;;;;;4.35;1.00;;;12.70;90.10;;;;;;5035816;28;20030;-77
2023/05/18 05:25:55;;;;;;;2.85;1.10;;;12.80;90.00;;;;;;5035832;28;20033;-77
2023/05/18 05:28:20;;;;;;;3.83;1.08;;;12.90;89.30;;;;;;5035717;28;20106;-78
2023/05/18 05:30:46;;;;;;;1.20;0.60;;;12.90;89.00;;;;;;5017690;28;20026;-79
2023/05/18 05:33:12;;;;;;;4.75;1.63;;;13.00;88.40;;;;;;5035386;28;20107;-79
2023/05/18 05:35:38;;;;;;;1.27;0.93;;;13.00;86.80;;;;;;5017688;28;20057;-79
2023/05/18 05:38:05;;;;;;;2.35;0.90;;;13.10;88.10;;;;;;5035372;28;20029;-79
2023/05/18 05:40:30;;;;;;;3.45;0.98;;;13.20;87.70;;;;;;5035349;28;20097;-77
2023/05/18 05:42:56;;;;;;;6.72;1.88;;;13.20;85.70;;;;;;5035084;28;20041;-75
2023/05/18 05:45:22;;;;;;;1.88;0.65;;;13.30;84.20;;;;;;5035677;28;20091;-77
2023/05/18 05:47:49;;;;;;;1.45;0.90;;;13.40;83.50;;;;;;5035773;28;20025;-76
2023/05/18 05:50:15;;;;;;;2.10;0.85;;;13.40;82.50;;;;;;5035504;28;20033;-77
2023/05/18 05:52:41;;;;;;;1.45;0.70;;;13.50;82.30;;;;;;5036032;28;20495;-75
2023/05/18 05:55:07;;;;;;;4.35;0.70;;;13.50;81.70;;;;;;5018334;28;20108;-73
2023/05/18 06:01:22;;;;;;;3.70;0.80;;;13.60;80.30;;;;;;4915329;29;20043;-74
2023/05/18 06:07:13;;;;;;;3.05;0.60;;;13.80;79.40;;;;;;4878274;29;20516;-74
2023/05/18 06:13:15;;;;;;;1.42;0.65;;;13.90;79.50;;;;;;4883789;29;20036;-74
2023/05/18 06:19:03;;;;;;;0.75;0.50;;;14.10;77.80;;;;;;4935566;29;20039;-74
2023/05/18 06:21:30;;;;;;;4.32;0.77;;;14.10;75.90;;;;;;4934179;29;20416;-75
2023/05/18 06:23:56;;;;;;;2.00;0.60;;;14.20;76.10;;;;;;4957965;28;20370;-74
2023/05/18 06:26:22;;;;;;;1.42;0.73;;;14.20;75.10;;;;;;5034240;28;20369;-75
2023/05/18 06:28:48;;;;;;;0.93;0.50;;;14.30;74.90;;;;;;5034034;28;20026;-74
2023/05/18 06:31:15;;;;;;;2.30;0.60;;;14.40;76.10;;;;;;5033713;28;20037;-74
2023/05/18 06:33:41;;;;;;;0.77;0.43;;;14.40;74.40;;;;;;5034069;28;20046;-75
2023/05/18 06:36:07;;;;;;;2.63;0.70;;;14.50;73.60;;;;;;5034282;28;20492;-74
2023/05/18 06:38:33;;;;;;;1.80;0.50;;;14.50;73.50;;;;;;5033818;28;20436;-75
2023/05/18 06:40:59;;;;;;;1.55;0.50;;;14.60;72.90;;;;;;5033955;28;20026;-78
2023/05/18 06:43:27;;;;;;;0.60;0.47;;;14.60;71.90;;;;;;5033788;28;20029;-77
2023/05/18 06:45:53;;;;;;;0.85;0.50;;;14.60;72.10;;;;;;5033993;28;20121;-77
2023/05/18 06:48:20;;;;;;;1.58;0.50;;;14.70;72.00;;;;;;5016122;28;20488;-75
2023/05/18 06:50:45;;;;;;;3.08;0.75;;;14.70;72.50;;;;;;5033650;28;20036;-76
2023/05/18 06:53:12;;;;;;;4.30;0.57;;;14.80;72.70;;;;;;5033511;28;20100;-79
2023/05/18 06:55:38;;;;;;;1.30;0.70;;;14.80;73.30;;;;;;5033635;28;20553;-77
2023/05/18 06:58:03;;;;;;;1.67;0.77;;;14.90;72.30;;;;;;5033677;28;20056;-75
2023/05/18 07:00:29;;;;;;;1.60;0.60;;;14.90;71.40;;;;;;5032625;28;20063;-76
2023/05/18 07:02:55;;;;;;;2.72;0.50;;;15.00;72.60;;;;;;5032289;28;20425;-76
2023/05/18 07:05:22;;;;;;;2.83;0.70;;;15.00;74.10;;;;;;5033157;28;20037;-75
2023/05/18 07:07:48;;;;;;;1.33;0.60;;;15.10;71.60;;;;;;5032187;28;20029;-75
2023/05/18 07:10:13;;;;;;;3.47;0.50;;;15.20;72.20;;;;;;5032473;28;20105;-74
2023/05/18 07:12:39;;;;;;;1.02;0.52;;;15.20;71.30;;;;;;5033149;28;20029;-76
2023/05/18 07:15:06;;;;;;;4.38;0.70;;;15.20;71.40;;;;;;5032050;28;20104;-75
2023/05/18 07:17:32;;;;;;;2.47;0.45;;;15.30;71.10;;;;;;5032764;28;20987;-75
2023/05/18 07:19:58;;;;;;;1.42;0.43;;;15.30;70.30;;;;;;5033037;28;20025;-74
2023/05/18 07:22:24;;;;;;;1.40;0.60;;;15.40;70.00;;;;;;5032970;28;20053;-74
2023/05/18 07:24:50;;;;;;;2.40;0.50;;;15.40;70.10;;;;;;5033135;28;20039;-75
2023/05/18 07:27:15;;;;;;;8.52;0.60;;;15.50;70.10;;;;;;5032903;28;20025;-75
2023/05/18 07:29:41;;;;;;;1.35;0.60;;;15.50;70.00;;;;;;5033187;28;20028;-76
2023/05/18 07:34:41;;;;;;;5.28;0.60;;;15.60;69.40;;;;;;5031202;28;20037;-83
2023/05/18 07:37:07;;;;;;;1.48;0.50;;;15.60;68.50;;;;;;5033488;28;20112;-81
2023/05/18 07:39:32;;;;;;;1.70;0.63;;;15.60;69.30;;;;;;5015254;28;20434;-83
2023/05/18 07:41:58;;;;;;;1.42;0.63;;;15.70;69.20;;;;;;5032783;28;20028;-81
2023/05/18 07:44:24;;;;;;;1.90;0.68;;;15.70;68.90;;;;;;5033399;28;20096;-83
2023/05/18 07:46:50;;;;;;;0.60;0.40;;;15.80;67.10;;;;;;5033255;28;20089;-83
2023/05/18 07:49:16;;;;;;;1.40;0.40;;;15.90;65.30;;;;;;5033445;28;20393;-82
2023/05/18 07:51:42;;;;;;;2.20;0.50;;;15.90;64.70;;;;;;5033546;28;20021;-80
2023/05/18 07:54:08;;;;;;;1.73;0.60;;;15.80;65.50;;;;;;5033707;28;20029;-83
2023/05/18 07:56:34;;;;;;;2.53;0.70;;;15.90;65.90;;;;;;5033512;28;20447;-85
2023/05/18 07:58:59;;;;;;;2.40;0.50;;;15.90;66.30;;;;;;5033544;28;20080;-87
2023/05/18 08:01:27;;;;;;;1.27;0.77;;;15.90;67.20;;;;;;5033299;28;20029;-85
2023/05/18 08:03:55;;;;;;;1.20;0.70;;;16.00;66.30;;;;;;5033653;28;20033;-74
2023/05/18 08:06:21;;;;;;;5.68;0.88;;;16.00;66.20;;;;;;5032840;28;20048;-84
2023/05/18 08:08:47;;;;;;;5.10;0.80;;;16.00;65.30;;;;;;5033138;28;20026;-84
2023/05/18 08:11:13;;;;;;;5.78;0.70;;;16.10;65.20;;;;;;5033311;28;20087;-85
2023/05/18 08:13:38;;;;;;;4.07;0.65;;;16.10;66.30;;;;;;5033029;28;20458;-85
2023/05/18 08:16:05;;;;;;;3.15;0.65;;;16.10;66.80;;;;;;5033386;28;20044;-84
2023/05/18 08:18:30;;;;;;;1.35;0.50;;;16.20;68.40;;;;;;5033028;28;20565;-84
2023/05/18 08:20:56;;;;;;;3.28;0.50;;;16.30;66.90;;;;;;5033003;28;20052;-84
2023/05/18 08:23:23;;;;;;;0.77;0.50;;;16.30;67.40;;;;;;5032797;28;20466;-85
2023/05/18 08:25:49;;;;;;;0.85;0.50;;;16.40;67.00;;;;;;5032914;28;20033;-79
2023/05/18 08:28:15;;;;;;;1.58;0.63;;;16.40;66.50;;;;;;5032604;28;20028;-85
2023/05/18 08:30:41;;;;;;;0.95;0.65;;;16.50;66.40;;;;;;5033132;28;20478;-86
2023/05/18 08:33:08;;;;;;;2.95;0.63;;;16.50;65.60;;;;;;5033831;28;20124;-86
2023/05/18 08:35:34;;;;;;;1.08;0.60;;;16.50;67.60;;;;;;5032960;28;20026;-79
2023/05/18 08:38:00;;;;;;;1.60;0.80;;;16.50;66.60;;;;;;5032835;28;20022;-79
2023/05/18 08:40:35;;;;;;;7.28;0.60;;;16.60;66.40;;;;;;5032843;28;20473;-80
2023/05/18 08:43:17;;;;;;;0.60;0.40;;;16.60;66.80;;;;;;5032854;28;20056;-80
2023/05/18 08:46:16;;;;;;;2.15;0.60;;;16.70;66.00;;;;;;5032767;28;20041;-79
2023/05/18 08:48:44;;;;;;;0.50;0.50;;;16.70;66.10;;;;;;5015347;28;20551;-77
2023/05/18 08:51:13;;;;;;;1.60;0.60;;;16.80;66.70;;;;;;5032764;28;20022;-79
2023/05/18 08:53:39;;;;;;;2.10;0.98;;;16.90;64.80;;;;;;5031190;28;20519;-79
2023/05/18 08:56:06;;;;;;;2.55;0.55;;;16.90;65.50;;;;;;5032268;28;20052;-78
2023/05/18 08:58:35;;;;;;;1.60;0.40;;;17.00;64.90;;;;;;5031178;28;20504;-78
2023/05/18 09:01:01;;;;;;;1.20;0.60;;;17.00;65.90;;;;;;5032128;28;20595;-75
2023/05/18 09:03:28;;;;;;;4.80;0.60;;;17.10;65.60;;;;;;5032277;28;20030;-74
2023/05/18 09:05:56;;;;;;;1.95;0.38;;;17.20;66.80;;;;;;5032409;28;20041;-74
2023/05/18 09:08:22;;;;;;;2.45;0.50;;;17.40;66.10;;;;;;5032641;28;20377;-74
2023/05/18 09:10:49;;;;;;;2.00;0.50;;;17.50;65.90;;;;;;5032579;28;20032;-74
2023/05/18 09:13:21;;;;;;;0.88;0.57;;;17.70;63.90;;;;;;5032093;28;20032;-74
2023/05/18 09:15:47;;;;;;;1.83;0.60;;;17.80;63.40;;;;;;5032420;28;20029;-74
2023/05/18 09:18:13;;;;;;;1.83;0.70;;;17.90;63.90;;;;;;5032278;28;20033;-75
2023/05/18 09:20:39;;;;;;;3.88;0.50;;;18.00;64.10;;;;;;5031738;28;20025;-75
2023/05/18 09:23:05;;;;;;;2.17;0.60;;;18.00;63.10;;;;;;5031680;28;20524;-74
2023/05/18 09:25:34;;;;;;;3.90;0.50;;;18.10;61.30;;;;;;5031690;28;20099;-74
2023/05/18 09:28:02;;;;;;;4.50;0.52;;;18.10;62.40;;;;;;5032025;28;20592;-74
2023/05/18 09:30:28;;;;;;;3.53;0.40;;;18.10;63.00;;;;;;5032100;28;20053;-75
2023/05/18 09:32:55;;;;;;;1.05;0.43;;;18.20;64.10;;;;;;5031912;28;20493;-75
2023/05/18 09:35:24;;;;;;;1.75;0.55;;;18.20;64.10;;;;;;5031981;28;20022;-74
2023/05/18 09:37:51;;;;;;;1.40;0.60;;;18.40;63.50;;;;;;5032074;28;20449;-74
2023/05/18 09:40:19;;;;;;;4.57;0.60;;;18.50;62.10;;;;;;5033703;28;20383;-74
2023/05/18 09:42:45;;;;;;;1.48;0.60;;;18.50;62.40;;;;;;5017908;28;20021;-74
2023/05/18 09:45:16;;;;;;;1.65;0.50;;;18.70;63.30;;;;;;5035412;28;20370;-74
2023/05/18 09:47:42;;;;;;;3.25;1.13;;;18.80;64.10;;;;;;5035975;28;20014;-74
2023/05/18 09:50:08;;;;;;;3.35;0.68;;;19.00;64.20;;;;;;5035642;28;20076;-75
2023/05/18 09:52:42;;;;;;;4.07;0.80;;;19.20;63.10;;;;;;5035555;28;20048;-75
2023/05/18 09:55:09;;;;;;;1.42;0.65;;;19.20;61.40;;;;;;5035778;28;20029;-74
2023/05/18 09:57:42;;;;;;;3.80;0.75;;;19.30;59.90;;;;;;5035462;28;20509;-74
2023/05/18 10:00:10;;;;;;;1.10;0.55;;;19.40;59.90;;;;;;5035088;28;20488;-74
2023/05/18 10:02:47;;;;;;;0.88;0.50;;;19.50;58.30;;;;;;5035569;28;20029;-75
2023/05/18 10:05:28;;;;;;;2.92;1.10;;;19.50;59.40;;;;;;5035404;28;20056;-74
2023/05/18 10:07:54;;;;;;;2.45;0.43;;;19.50;58.40;;;;;;5035507;28;20374;-74
2023/05/18 10:10:24;;;;;;;2.40;0.55;;;19.50;58.80;;;;;;5035433;28;20030;-75
2023/05/18 10:12:50;;;;;;;4.07;0.77;;;19.40;57.10;;;;;;5035117;28;20074;-75
2023/05/18 10:15:19;;;;;;;4.38;0.70;;;19.40;57.00;;;;;;5034558;28;20052;-75
2023/05/18 10:17:47;;;;;;;2.08;0.60;;;19.50;56.80;;;;;;5034889;28;20026;-75
2023/05/18 10:20:18;;;;;;;2.33;0.63;;;19.50;58.20;;;;;;5035044;28;20026;-75
2023/05/18 10:22:46;;;;;;;2.83;0.70;;;19.50;56.90;;;;;;5034872;28;20394;-74
2023/05/18 10:25:17;;;;;;;3.47;1.15;;;19.60;57.80;;;;;;5034543;28;20108;-74
2023/05/18 10:27:44;;;;;;;2.08;0.82;;;19.60;57.60;;;;;;5034755;28;20489;-75
2023/05/18 10:30:10;;;;;;;2.55;0.77;;;19.70;57.40;;;;;;5035026;28;20400;-74
2023/05/18 10:32:38;;;;;;;3.40;0.85;;;19.70;57.20;;;;;;5034649;28;20045;-74
2023/05/18 10:35:06;;;;;;;2.13;0.82;;;19.80;59.60;;;;;;5034828;28;20393;-74
2023/05/18 10:37:36;;;;;;;30.25;1.25;;;19.70;58.20;;;;;;5034550;28;20097;-75
2023/05/18 10:40:03;;;;;;;3.03;0.80;;;19.80;60.20;;;;;;5034507;28;20104;-74
2023/05/18 10:42:30;;;;;;;8.90;1.20;;;19.90;59.90;;;;;;5034699;28;20422;-74
2023/05/18 10:45:00;;;;;;;6.00;0.93;;;19.90;60.00;;;;;;5034851;28;20477;-74
2023/05/18 10:47:30;;;;;;;3.85;0.90;;;19.90;60.70;;;;;;5034627;28;20025;-74
2023/05/18 10:49:59;;;;;;;2.70;1.02;;;20.00;59.90;;;;;;5034405;28;20026;-75
2023/05/18 10:52:30;;;;;;;4.38;1.30;;;20.00;58.70;;;;;;5033720;28;20025;-74
2023/05/18 10:54:58;;;;;;;3.33;1.10;;;20.00;58.60;;;;;;5034388;28;20037;-75
2023/05/18 10:57:29;;;;;;;1.98;0.75;;;20.00;58.50;;;;;;5034004;28;20027;-74
2023/05/18 10:59:57;;;;;;;11.38;1.30;;;19.90;57.20;;;;;;5034010;28;20032;-74
2023/05/18 11:02:23;;;;;;;4.63;0.98;;;19.80;57.30;;;;;;5034166;28;20021;-74
2023/05/18 11:04:49;;;;;;;2.40;1.30;;;19.70;57.30;;;;;;5034315;28;20540;-74
2023/05/18 11:07:16;;;;;;;3.30;0.88;;;19.70;58.00;;;;;;5033884;28;20021;-74
2023/05/18 11:09:43;;;;;;;1.88;0.82;;;19.70;59.90;;;;;;5033962;28;20022;-74
2023/05/18 11:12:13;;;;;;;5.60;0.98;;;19.80;59.20;;;;;;5033915;28;20026;-74
2023/05/18 11:15:06;;;;;;;4.88;1.20;;;19.80;58.90;;;;;;5033980;28;20033;-74
2023/05/18 11:17:32;;;;;;;;;;;19.90;59.80;;;;;;5030454;28;20493;-74
2023/05/18 11:20:07;;;;;;;3.72;1.10;;;20.10;57.90;;;;;;5033431;28;19916;-75
2023/05/18 11:22:50;;;;;;;4.22;1.30;;;20.10;57.80;;;;;;5033591;28;20048;-74
2023/05/18 11:25:24;;;;;;;3.78;0.90;;;20.20;57.80;;;;;;5033902;28;20474;-75
2023/05/18 11:27:52;;;;;;;5.97;1.50;;;20.30;59.10;;;;;;5012483;28;20432;-75
2023/05/18 11:30:45;;;;;;;1.90;0.90;;;20.30;58.50;;;;;;5012618;28;20045;-75
2023/05/18 11:33:21;;;;;;;4.93;1.20;;;20.30;59.40;;;;;;5032375;28;20049;-77
2023/05/18 11:36:13;;;;;;;2.40;1.05;;;20.30;58.40;;;;;;5033532;28;20037;-73
2023/05/18 11:39:05;;;;;;;3.63;1.45;;;20.40;57.90;;;;;;5033123;28;20021;-73
2023/05/18 11:41:37;;;;;;;8.45;1.30;;;20.30;57.70;;;;;;5032961;28;20031;-74
2023/05/18 11:44:16;;;;;;;6.82;1.20;;;20.30;56.40;;;;;;5033421;28;20031;-73
2023/05/18 11:46:55;;;;;;;1.80;1.15;;;20.20;57.70;;;;;;5033264;28;20029;-73
2023/05/18 11:49:24;;;;;;;6.15;1.30;;;20.20;57.90;;;;;;5033276;28;20079;-74
2023/05/18 11:52:08;;;;;;;4.30;1.13;;;20.30;57.50;;;;;;5033246;28;20087;-75
2023/05/18 11:54:48;;;;;;;2.30;1.10;;;20.30;56.20;;;;;;5032955;28;20082;-74
2023/05/18 11:57:16;;;;;;;5.50;1.52;;;20.40;57.50;;;;;;5032833;28;20112;-74
2023/05/18 11:59:44;;;;;;;4.22;1.80;;;20.50;55.90;;;;;;5033220;28;20484;-75
2023/05/18 12:02:17;;;;;;;5.10;1.20;;;20.50;56.20;;;;;;5032433;28;20037;-74
2023/05/18 12:04:49;;;;;;;4.05;1.10;;;20.50;56.20;;;;;;5030066;28;20026;-75
2023/05/18 12:07:16;;;;;;;;;;;20.50;55.90;;;;;;5030677;28;20032;-74
2023/05/18 12:09:43;;;;;;;4.68;1.30;;;20.50;56.00;;;;;;5032399;28;19905;-74
2023/05/18 12:12:10;;;;;;;8.00;1.40;;;20.50;55.40;;;;;;5032822;28;20029;-74
2023/05/18 12:14:41;;;;;;;4.32;1.08;;;20.50;56.80;;;;;;5031137;28;20036;-75
2023/05/18 12:17:09;;;;;;;5.95;1.20;;;20.50;56.50;;;;;;5033080;28;20458;-74
2023/05/18 12:19:45;;;;;;;4.93;1.13;;;20.50;56.90;;;;;;5033052;28;20021;-74
2023/05/18 12:22:11;;;;;;;5.22;1.08;;;20.50;56.70;;;;;;4999589;28;20424;-74
2023/05/18 12:24:42;;;;;;;5.18;1.58;;;20.60;57.20;;;;;;5032992;28;20055;-74
2023/05/18 12:27:10;;;;;;;3.42;1.33;;;20.60;57.60;;;;;;5032855;28;20022;-73
2023/05/18 12:29:40;;;;;;;6.50;1.60;;;20.70;57.00;;;;;;5032438;28;20013;-74
2023/05/18 12:32:08;;;;;;;2.75;1.08;;;20.80;56.50;;;;;;5032869;28;20392;-74
2023/05/18 12:34:34;;;;;;;7.72;1.42;;;20.70;55.80;;;;;;5032706;28;20073;-74
2023/05/18 12:37:00;;;;;;;5.30;1.50;;;20.80;57.00;;;;;;5032860;28;20132;-74
2023/05/18 12:39:26;;;;;;;3.58;1.25;;;20.80;56.70;;;;;;5032722;28;20517;-75
2023/05/18 12:41:52;;;;;;;6.30;1.13;;;20.80;56.50;;;;;;5032810;28;20087;-74
2023/05/18 12:44:17;;;;;;;3.72;1.30;;;20.80;55.40;;;;;;5032724;28;20041;-74
2023/05/18 12:46:43;;;;;;;7.40;1.42;;;20.80;56.10;;;;;;5032783;28;20025;-74
2023/05/18 12:49:09;;;;;;;6.30;1.40;;;20.80;55.70;;;;;;5032750;28;20053;-75
2023/05/18 12:51:37;;;;;;;4.07;1.17;;;20.70;55.50;;;;;;5032489;28;20632;-75
2023/05/18 12:54:04;;;;;;;4.13;1.23;;;20.70;56.20;;;;;;5032666;28;20490;-74
2023/05/18 12:56:51;;;;;;;1.77;1.02;;;20.70;57.00;;;;;;5032553;28;20030;-74
2023/05/18 12:59:18;;;;;;;3.60;1.50;;;20.70;56.40;;;;;;5032588;28;20025;-74
2023/05/18 13:01:44;;;;;;;2.58;1.02;;;20.70;57.20;;;;;;5032703;28;20033;-74
2023/05/18 13:04:11;;;;;;;5.30;1.40;;;20.60;57.00;;;;;;5031771;28;20385;-75
2023/05/18 13:06:37;;;;;;;6.60;1.08;;;20.70;57.10;;;;;;5032395;28;20071;-74
2023/05/18 13:09:13;;;;;;;5.25;1.40;;;20.70;57.20;;;;;;5032460;28;20075;-74
2023/05/18 13:11:39;;;;;;;3.50;1.52;;;20.70;57.30;;;;;;5032523;28;20017;-74
2023/05/18 13:14:07;;;;;;;2.55;1.42;;;20.60;57.80;;;;;;5033420;28;20028;-74
2023/05/18 13:16:37;;;;;;;4.57;1.40;;;20.60;56.10;;;;;;5036253;28;20034;-74
2023/05/18 13:19:05;;;;;;;5.45;1.85;;;20.60;56.70;;;;;;5018439;28;20021;-74
2023/05/18 13:21:33;;;;;;;3.38;1.60;;;20.60;58.10;;;;;;5036219;28;20552;-74
2023/05/18 13:23:59;;;;;;;2.83;1.45;;;20.60;58.50;;;;;;5036225;28;20099;-74
2023/05/18 13:26:26;;;;;;;3.05;1.35;;;20.60;56.90;;;;;;5036168;28;20041;-74
2023/05/18 13:28:54;;;;;;;2.22;1.10;;;20.60;57.30;;;;;;5036142;28;20048;-74
2023/05/18 13:31:21;;;;;;;5.35;1.35;;;20.60;57.70;;;;;;5036397;28;20025;-74
2023/05/18 13:33:47;;;;;;;7.38;1.45;;;20.70;57.50;;;;;;5035792;28;20137;-74
2023/05/18 13:36:13;;;;;;;6.10;1.83;;;20.70;57.70;;;;;;5035909;28;20037;-75
2023/05/18 13:38:40;;;;;;;4.60;1.45;;;20.70;57.50;;;;;;5018352;28;20116;-75
2023/05/18 13:41:08;;;;;;;3.15;1.50;;;20.70;57.30;;;;;;5036014;28;20060;-74
2023/05/18 13:43:33;;;;;;;6.20;1.73;;;20.80;58.10;;;;;;5035620;28;20049;-75
2023/05/18 13:45:59;;;;;;;4.85;1.60;;;20.80;57.10;;;;;;5035643;28;20111;-73
2023/05/18 13:48:27;;;;;;;7.13;1.48;;;20.90;56.70;;;;;;5035789;28;20113;-74
2023/05/18 13:50:54;;;;;;;3.40;1.63;;;21.00;57.70;;;;;;5035750;28;20022;-74
2023/05/18 13:53:19;;;;;;;2.28;1.25;;;21.00;57.30;;;;;;5035609;28;20524;-74
2023/05/18 13:55:45;;;;;;;4.93;1.55;;;21.10;56.20;;;;;;5035379;28;20105;-74
2023/05/18 13:58:11;;;;;;;3.05;1.40;;;21.20;55.60;;;;;;5035373;28;20104;-74